sensor_id;sensor_type;location;lat;lon;timestamp;P1;durP1;ratioP1;P2;durP2;ratioP2
47239;SDS011;32978;53.586;10.052;2022-09-09T00:02:38;73.60;;;66.10;;
47239;SDS011;32978;53.586;10.052;2022-09-09T00:07:58;76.70;;;68.47;;
47239;SDS011;32978;53.586;10.052;2022-09-09T00:18:24;83.03;;;72.80;;
47239;SDS011;32978;53.586;10.052;2022-09-09T00:23:24;83.65;;;74.50;;
47239;SDS011;32978;53.586;10.052;2022-09-09T00:28:25;78.97;;;70.53;;
47239;SDS011;32978;53.586;10.052;2022-09-09T00:33:23;80.00;;;71.27;;
47239;SDS011;32978;53.586;10.052;2022-09-09T00:38:38;81.85;;;70.57;;
47239;SDS011;32978;53.586;10.052;2022-09-09T00:43:38;83.47;;;74.38;;
47239;SDS011;32978;53.586;10.052;2022-09-09T00:59:15;78.85;;;70.72;;
47239;SDS011;32978;53.586;10.052;2022-09-09T01:04:13;74.63;;;67.15;;
47239;SDS011;32978;53.586;10.052;2022-09-09T01:19:43;75.13;;;67.93;;
47239;SDS011;32978;53.586;10.052;2022-09-09T01:29:46;70.47;;;63.88;;
47239;SDS011;32978;53.586;10.052;2022-09-09T01:34:43;74.22;;;67.22;;
47239;SDS011;32978;53.586;10.052;2022-09-09T01:39:40;70.72;;;64.00;;
47239;SDS011;32978;53.586;10.052;2022-09-09T01:44:37;72.65;;;65.78;;
47239;SDS011;32978;53.586;10.052;2022-09-09T01:49:34;71.95;;;65.35;;
47239;SDS011;32978;53.586;10.052;2022-09-09T01:54:31;74.03;;;67.22;;
47239;SDS011;32978;53.586;10.052;2022-09-09T01:59:42;75.13;;;67.95;;
47239;SDS011;32978;53.586;10.052;2022-09-09T02:04:42;75.28;;;68.25;;
47239;SDS011;32978;53.586;10.052;2022-09-09T02:09:38;76.68;;;69.78;;
47239;SDS011;32978;53.586;10.052;2022-09-09T02:14:38;75.13;;;68.43;;
47239;SDS011;32978;53.586;10.052;2022-09-09T02:19:37;76.93;;;69.80;;
47239;SDS011;32978;53.586;10.052;2022-09-09T02:24:36;74.00;;;67.35;;
47239;SDS011;32978;53.586;10.052;2022-09-09T02:29:34;76.32;;;69.30;;
47239;SDS011;32978;53.586;10.052;2022-09-09T02:34:31;79.28;;;71.80;;
47239;SDS011;32978;53.586;10.052;2022-09-09T02:39:30;79.60;;;72.40;;
47239;SDS011;32978;53.586;10.052;2022-09-09T02:44:26;77.22;;;70.28;;
47239;SDS011;32978;53.586;10.052;2022-09-09T02:49:40;75.93;;;69.20;;
47239;SDS011;32978;53.586;10.052;2022-09-09T02:54:39;73.57;;;66.55;;
47239;SDS011;32978;53.586;10.052;2022-09-09T02:59:35;76.03;;;69.35;;
47239;SDS011;32978;53.586;10.052;2022-09-09T03:04:32;77.32;;;70.43;;
47239;SDS011;32978;53.586;10.052;2022-09-09T03:09:28;74.05;;;67.38;;
47239;SDS011;32978;53.586;10.052;2022-09-09T03:14:24;77.13;;;70.40;;
47239;SDS011;32978;53.586;10.052;2022-09-09T03:19:21;70.32;;;63.90;;
47239;SDS011;32978;53.586;10.052;2022-09-09T03:24:17;71.53;;;65.22;;
47239;SDS011;32978;53.586;10.052;2022-09-09T03:29:13;74.75;;;68.35;;
47239;SDS011;32978;53.586;10.052;2022-09-09T03:34:10;73.22;;;66.93;;
47239;SDS011;32978;53.586;10.052;2022-09-09T03:39:06;75.90;;;69.22;;
47239;SDS011;32978;53.586;10.052;2022-09-09T03:44:03;73.28;;;67.13;;
47239;SDS011;32978;53.586;10.052;2022-09-09T03:48:59;73.22;;;67.00;;
47239;SDS011;32978;53.586;10.052;2022-09-09T03:53:56;73.78;;;67.47;;
47239;SDS011;32978;53.586;10.052;2022-09-09T03:58:54;69.53;;;63.47;;
47239;SDS011;32978;53.586;10.052;2022-09-09T04:03:50;76.25;;;69.80;;
47239;SDS011;32978;53.586;10.052;2022-09-09T04:08:46;74.93;;;68.53;;
47239;SDS011;32978;53.586;10.052;2022-09-09T04:13:44;73.75;;;67.65;;
47239;SDS011;32978;53.586;10.052;2022-09-09T04:18:41;71.72;;;65.70;;
47239;SDS011;32978;53.586;10.052;2022-09-09T04:23:38;74.43;;;67.93;;
47239;SDS011;32978;53.586;10.052;2022-09-09T04:28:35;73.63;;;67.82;;
47239;SDS011;32978;53.586;10.052;2022-09-09T04:33:32;73.35;;;67.25;;
47239;SDS011;32978;53.586;10.052;2022-09-09T04:38:35;68.63;;;62.83;;
47239;SDS011;32978;53.586;10.052;2022-09-09T04:43:31;74.65;;;68.50;;
47239;SDS011;32978;53.586;10.052;2022-09-09T04:48:28;76.53;;;70.32;;
47239;SDS011;32978;53.586;10.052;2022-09-09T04:53:24;79.65;;;73.10;;
47239;SDS011;32978;53.586;10.052;2022-09-09T04:58:21;83.03;;;76.53;;
47239;SDS011;32978;53.586;10.052;2022-09-09T05:03:18;82.63;;;75.90;;
47239;SDS011;32978;53.586;10.052;2022-09-09T05:08:15;76.28;;;70.13;;
47239;SDS011;32978;53.586;10.052;2022-09-09T05:13:11;77.45;;;71.25;;
47239;SDS011;32978;53.586;10.052;2022-09-09T05:18:07;77.00;;;70.88;;
47239;SDS011;32978;53.586;10.052;2022-09-09T05:23:04;74.97;;;69.00;;
47239;SDS011;32978;53.586;10.052;2022-09-09T05:28:00;78.22;;;72.13;;
47239;SDS011;32978;53.586;10.052;2022-09-09T05:32:57;75.20;;;69.05;;
47239;SDS011;32978;53.586;10.052;2022-09-09T05:37:53;73.90;;;67.95;;
47239;SDS011;32978;53.586;10.052;2022-09-09T05:42:50;75.60;;;69.60;;
47239;SDS011;32978;53.586;10.052;2022-09-09T05:47:51;73.45;;;67.60;;
47239;SDS011;32978;53.586;10.052;2022-09-09T05:52:48;72.95;;;67.03;;
47239;SDS011;32978;53.586;10.052;2022-09-09T05:57:49;73.90;;;67.78;;
47239;SDS011;32978;53.586;10.052;2022-09-09T06:02:50;69.70;;;64.25;;
47239;SDS011;32978;53.586;10.052;2022-09-09T06:07:47;77.53;;;71.53;;
47239;SDS011;32978;53.586;10.052;2022-09-09T06:12:43;74.20;;;68.30;;
47239;SDS011;32978;53.586;10.052;2022-09-09T06:17:39;73.75;;;68.25;;
47239;SDS011;32978;53.586;10.052;2022-09-09T06:22:38;71.22;;;65.50;;
47239;SDS011;32978;53.586;10.052;2022-09-09T06:27:35;66.75;;;61.45;;
47239;SDS011;32978;53.586;10.052;2022-09-09T06:32:31;67.38;;;62.03;;
47239;SDS011;32978;53.586;10.052;2022-09-09T06:37:30;64.40;;;59.25;;
47239;SDS011;32978;53.586;10.052;2022-09-09T06:42:27;64.25;;;59.08;;
47239;SDS011;32978;53.586;10.052;2022-09-09T06:47:23;60.67;;;55.88;;
47239;SDS011;32978;53.586;10.052;2022-09-09T06:52:20;59.05;;;54.25;;
47239;SDS011;32978;53.586;10.052;2022-09-09T06:57:17;82.82;;;76.28;;
47239;SDS011;32978;53.586;10.052;2022-09-09T07:02:32;73.57;;;67.68;;
47239;SDS011;32978;53.586;10.052;2022-09-09T07:07:34;77.93;;;71.70;;
47239;SDS011;32978;53.586;10.052;2022-09-09T07:12:31;80.45;;;73.75;;
47239;SDS011;32978;53.586;10.052;2022-09-09T07:17:27;76.70;;;70.50;;
47239;SDS011;32978;53.586;10.052;2022-09-09T07:22:25;78.03;;;71.97;;
47239;SDS011;32978;53.586;10.052;2022-09-09T07:27:23;86.57;;;79.78;;
47239;SDS011;32978;53.586;10.052;2022-09-09T07:32:19;78.78;;;72.60;;
47239;SDS011;32978;53.586;10.052;2022-09-09T07:37:16;81.22;;;74.88;;
47239;SDS011;32978;53.586;10.052;2022-09-09T07:42:13;81.75;;;75.35;;
47239;SDS011;32978;53.586;10.052;2022-09-09T07:47:10;78.85;;;72.97;;
47239;SDS011;32978;53.586;10.052;2022-09-09T07:52:07;87.28;;;80.55;;
47239;SDS011;32978;53.586;10.052;2022-09-09T07:57:03;88.55;;;82.03;;
47239;SDS011;32978;53.586;10.052;2022-09-09T08:02:00;89.78;;;83.15;;
47239;SDS011;32978;53.586;10.052;2022-09-09T08:06:57;85.50;;;79.07;;
47239;SDS011;32978;53.586;10.052;2022-09-09T08:11:55;92.40;;;85.60;;
47239;SDS011;32978;53.586;10.052;2022-09-09T08:16:52;99.97;;;92.90;;
47239;SDS011;32978;53.586;10.052;2022-09-09T08:21:52;98.93;;;92.38;;
47239;SDS011;32978;53.586;10.052;2022-09-09T08:26:48;91.30;;;85.22;;
47239;SDS011;32978;53.586;10.052;2022-09-09T08:36:44;90.63;;;84.07;;
47239;SDS011;32978;53.586;10.052;2022-09-09T08:47:00;88.70;;;82.63;;
47239;SDS011;32978;53.586;10.052;2022-09-09T08:51:58;95.00;;;88.63;;
47239;SDS011;32978;53.586;10.052;2022-09-09T08:56:55;85.95;;;80.13;;
47239;SDS011;32978;53.586;10.052;2022-09-09T09:02:04;94.00;;;87.85;;
47239;SDS011;32978;53.586;10.052;2022-09-09T09:07:28;93.65;;;87.47;;
47239;SDS011;32978;53.586;10.052;2022-09-09T09:12:29;91.22;;;85.07;;
47239;SDS011;32978;53.586;10.052;2022-09-09T09:17:28;110.43;;;103.57;;
47239;SDS011;32978;53.586;10.052;2022-09-09T09:38:19;63.65;;;59.55;;
47239;SDS011;32978;53.586;10.052;2022-09-09T09:43:40;59.05;;;55.60;;
47239;SDS011;32978;53.586;10.052;2022-09-09T09:48:36;28.65;;;26.90;;
47239;SDS011;32978;53.586;10.052;2022-09-09T09:53:34;28.63;;;26.83;;
47239;SDS011;32978;53.586;10.052;2022-09-09T09:58:31;23.77;;;22.08;;
47239;SDS011;32978;53.586;10.052;2022-09-09T10:03:35;27.88;;;26.10;;
47239;SDS011;32978;53.586;10.052;2022-09-09T10:08:34;30.83;;;28.92;;
47239;SDS011;32978;53.586;10.052;2022-09-09T10:39:33;13.90;;;12.77;;
47239;SDS011;32978;53.586;10.052;2022-09-09T10:50:12;13.60;;;12.65;;
47239;SDS011;32978;53.586;10.052;2022-09-09T10:55:18;12.85;;;11.88;;
47239;SDS011;32978;53.586;10.052;2022-09-09T11:00:17;12.15;;;11.15;;
47239;SDS011;32978;53.586;10.052;2022-09-09T11:10:17;14.68;;;13.68;;
47239;SDS011;32978;53.586;10.052;2022-09-09T11:15:22;15.43;;;14.30;;
47239;SDS011;32978;53.586;10.052;2022-09-09T11:20:19;15.30;;;14.40;;
47239;SDS011;32978;53.586;10.052;2022-09-09T11:40:24;15.20;;;14.18;;
47239;SDS011;32978;53.586;10.052;2022-09-09T11:45:23;15.18;;;14.07;;
47239;SDS011;32978;53.586;10.052;2022-09-09T11:55:26;15.32;;;14.15;;
47239;SDS011;32978;53.586;10.052;2022-09-09T12:05:38;14.80;;;13.80;;
47239;SDS011;32978;53.586;10.052;2022-09-09T12:10:35;14.60;;;13.50;;
47239;SDS011;32978;53.586;10.052;2022-09-09T12:15:34;15.60;;;14.48;;
47239;SDS011;32978;53.586;10.052;2022-09-09T12:20:37;15.20;;;14.10;;
47239;SDS011;32978;53.586;10.052;2022-09-09T12:35:56;25.23;;;23.65;;
47239;SDS011;32978;53.586;10.052;2022-09-09T12:40:54;31.85;;;29.95;;
47239;SDS011;32978;53.586;10.052;2022-09-09T12:45:51;64.20;;;60.53;;
47239;SDS011;32978;53.586;10.052;2022-09-09T12:50:53;53.05;;;50.13;;
47239;SDS011;32978;53.586;10.052;2022-09-09T12:55:54;16.92;;;15.73;;
47239;SDS011;32978;53.586;10.052;2022-09-09T13:00:52;22.60;;;21.23;;
47239;SDS011;32978;53.586;10.052;2022-09-09T13:05:49;19.27;;;18.08;;
47239;SDS011;32978;53.586;10.052;2022-09-09T13:11:01;23.40;;;21.90;;
47239;SDS011;32978;53.586;10.052;2022-09-09T13:15:59;28.08;;;26.15;;
47239;SDS011;32978;53.586;10.052;2022-09-09T13:20:56;29.27;;;27.13;;
47239;SDS011;32978;53.586;10.052;2022-09-09T13:25:54;27.63;;;25.92;;
47239;SDS011;32978;53.586;10.052;2022-09-09T13:30:58;29.67;;;27.77;;
47239;SDS011;32978;53.586;10.052;2022-09-09T13:40:59;36.15;;;33.58;;
47239;SDS011;32978;53.586;10.052;2022-09-09T13:45:59;85.75;;;80.88;;
47239;SDS011;32978;53.586;10.052;2022-09-09T13:50:56;96.03;;;90.15;;
47239;SDS011;32978;53.586;10.052;2022-09-09T13:55:53;87.70;;;82.20;;
47239;SDS011;32978;53.586;10.052;2022-09-09T14:00:49;88.57;;;82.80;;
47239;SDS011;32978;53.586;10.052;2022-09-09T14:05:46;88.95;;;83.15;;
47239;SDS011;32978;53.586;10.052;2022-09-09T14:10:42;88.57;;;82.47;;
47239;SDS011;32978;53.586;10.052;2022-09-09T14:15:38;85.22;;;78.97;;
47239;SDS011;32978;53.586;10.052;2022-09-09T14:20:35;90.40;;;84.00;;
47239;SDS011;32978;53.586;10.052;2022-09-09T14:25:31;81.32;;;75.22;;
47239;SDS011;32978;53.586;10.052;2022-09-09T14:30:27;87.22;;;80.65;;
47239;SDS011;32978;53.586;10.052;2022-09-09T14:35:23;89.30;;;82.75;;
47239;SDS011;32978;53.586;10.052;2022-09-09T14:40:20;93.80;;;87.10;;
47239;SDS011;32978;53.586;10.052;2022-09-09T14:45:16;102.00;;;95.30;;
47239;SDS011;32978;53.586;10.052;2022-09-09T14:50:13;96.60;;;90.20;;
47239;SDS011;32978;53.586;10.052;2022-09-09T14:55:10;100.50;;;93.72;;
47239;SDS011;32978;53.586;10.052;2022-09-09T15:00:07;93.47;;;87.07;;
47239;SDS011;32978;53.586;10.052;2022-09-09T15:05:04;89.47;;;82.97;;
47239;SDS011;32978;53.586;10.052;2022-09-09T15:10:01;84.47;;;77.97;;
47239;SDS011;32978;53.586;10.052;2022-09-09T15:14:57;81.78;;;75.68;;
47239;SDS011;32978;53.586;10.052;2022-09-09T15:19:54;78.93;;;73.03;;
47239;SDS011;32978;53.586;10.052;2022-09-09T15:24:50;80.05;;;74.10;;
47239;SDS011;32978;53.586;10.052;2022-09-09T15:29:47;92.90;;;85.95;;
47239;SDS011;32978;53.586;10.052;2022-09-09T15:34:43;109.07;;;100.55;;
47239;SDS011;32978;53.586;10.052;2022-09-09T15:39:39;97.95;;;90.45;;
47239;SDS011;32978;53.586;10.052;2022-09-09T15:44:40;107.55;;;99.43;;
47239;SDS011;32978;53.586;10.052;2022-09-09T15:49:38;107.20;;;99.30;;
47239;SDS011;32978;53.586;10.052;2022-09-09T15:54:35;110.55;;;102.55;;
47239;SDS011;32978;53.586;10.052;2022-09-09T15:59:32;122.45;;;114.15;;
47239;SDS011;32978;53.586;10.052;2022-09-09T16:04:30;124.38;;;115.85;;
47239;SDS011;32978;53.586;10.052;2022-09-09T16:09:27;130.27;;;121.63;;
47239;SDS011;32978;53.586;10.052;2022-09-09T16:14:24;139.32;;;130.27;;
47239;SDS011;32978;53.586;10.052;2022-09-09T16:19:21;132.25;;;123.28;;
47239;SDS011;32978;53.586;10.052;2022-09-09T16:24:18;126.25;;;117.80;;
47239;SDS011;32978;53.586;10.052;2022-09-09T16:29:16;127.53;;;118.72;;
47239;SDS011;32978;53.586;10.052;2022-09-09T16:34:13;129.48;;;120.80;;
47239;SDS011;32978;53.586;10.052;2022-09-09T16:39:11;124.43;;;116.22;;
47239;SDS011;32978;53.586;10.052;2022-09-09T16:44:09;127.53;;;118.82;;
47239;SDS011;32978;53.586;10.052;2022-09-09T16:49:06;117.43;;;109.80;;
47239;SDS011;32978;53.586;10.052;2022-09-09T16:54:04;110.63;;;103.30;;
47239;SDS011;32978;53.586;10.052;2022-09-09T16:59:03;120.82;;;112.72;;
47239;SDS011;32978;53.586;10.052;2022-09-09T17:04:00;118.22;;;109.85;;
47239;SDS011;32978;53.586;10.052;2022-09-09T17:08:57;115.90;;;108.00;;
47239;SDS011;32978;53.586;10.052;2022-09-09T17:13:54;122.72;;;114.50;;
47239;SDS011;32978;53.586;10.052;2022-09-09T17:18:50;117.22;;;109.07;;
47239;SDS011;32978;53.586;10.052;2022-09-09T17:23:47;115.22;;;107.30;;
47239;SDS011;32978;53.586;10.052;2022-09-09T17:28:44;115.50;;;107.47;;
47239;SDS011;32978;53.586;10.052;2022-09-09T17:33:42;117.95;;;110.00;;
47239;SDS011;32978;53.586;10.052;2022-09-09T17:38:39;114.70;;;106.90;;
47239;SDS011;32978;53.586;10.052;2022-09-09T17:43:35;119.47;;;111.55;;
47239;SDS011;32978;53.586;10.052;2022-09-09T17:48:33;111.85;;;104.32;;
47239;SDS011;32978;53.586;10.052;2022-09-09T17:53:30;113.18;;;105.45;;
47239;SDS011;32978;53.586;10.052;2022-09-09T17:58:27;119.88;;;111.88;;
47239;SDS011;32978;53.586;10.052;2022-09-09T18:03:23;94.97;;;88.53;;
47239;SDS011;32978;53.586;10.052;2022-09-09T18:08:20;95.25;;;89.00;;
47239;SDS011;32978;53.586;10.052;2022-09-09T18:13:16;87.25;;;81.25;;
47239;SDS011;32978;53.586;10.052;2022-09-09T18:18:13;89.38;;;83.07;;
47239;SDS011;32978;53.586;10.052;2022-09-09T18:23:09;94.10;;;87.57;;
47239;SDS011;32978;53.586;10.052;2022-09-09T18:28:05;99.50;;;92.45;;
47239;SDS011;32978;53.586;10.052;2022-09-09T18:33:02;95.43;;;88.80;;
47239;SDS011;32978;53.586;10.052;2022-09-09T18:37:59;92.03;;;85.53;;
47239;SDS011;32978;53.586;10.052;2022-09-09T18:42:55;94.38;;;87.43;;
47239;SDS011;32978;53.586;10.052;2022-09-09T18:47:51;93.97;;;87.57;;
47239;SDS011;32978;53.586;10.052;2022-09-09T18:52:47;95.65;;;89.20;;
47239;SDS011;32978;53.586;10.052;2022-09-09T18:57:44;95.32;;;88.82;;
47239;SDS011;32978;53.586;10.052;2022-09-09T19:02:40;95.28;;;88.70;;
47239;SDS011;32978;53.586;10.052;2022-09-09T19:07:36;92.22;;;85.82;;
47239;SDS011;32978;53.586;10.052;2022-09-09T19:12:36;94.63;;;88.20;;
47239;SDS011;32978;53.586;10.052;2022-09-09T19:17:34;92.80;;;86.18;;
47239;SDS011;32978;53.586;10.052;2022-09-09T19:22:31;91.05;;;84.55;;
47239;SDS011;32978;53.586;10.052;2022-09-09T19:27:28;94.05;;;87.45;;
47239;SDS011;32978;53.586;10.052;2022-09-09T19:32:24;92.57;;;86.07;;
47239;SDS011;32978;53.586;10.052;2022-09-09T19:37:40;90.55;;;84.30;;
47239;SDS011;32978;53.586;10.052;2022-09-09T19:42:37;92.45;;;85.90;;
47239;SDS011;32978;53.586;10.052;2022-09-09T19:47:35;88.68;;;82.43;;
47239;SDS011;32978;53.586;10.052;2022-09-09T19:52:31;92.97;;;86.63;;
47239;SDS011;32978;53.586;10.052;2022-09-09T19:57:28;90.35;;;84.05;;
47239;SDS011;32978;53.586;10.052;2022-09-09T20:02:25;86.05;;;80.13;;
47239;SDS011;32978;53.586;10.052;2022-09-09T20:07:23;90.05;;;83.55;;
47239;SDS011;32978;53.586;10.052;2022-09-09T20:12:19;97.10;;;90.65;;
47239;SDS011;32978;53.586;10.052;2022-09-09T20:17:16;92.78;;;86.38;;
47239;SDS011;32978;53.586;10.052;2022-09-09T20:22:12;97.95;;;90.93;;
47239;SDS011;32978;53.586;10.052;2022-09-09T20:27:09;98.55;;;91.85;;
47239;SDS011;32978;53.586;10.052;2022-09-09T20:32:05;94.88;;;88.28;;
47239;SDS011;32978;53.586;10.052;2022-09-09T20:37:02;99.45;;;92.68;;
47239;SDS011;32978;53.586;10.052;2022-09-09T20:41:58;94.95;;;87.95;;
47239;SDS011;32978;53.586;10.052;2022-09-09T20:46:54;95.97;;;89.18;;
47239;SDS011;32978;53.586;10.052;2022-09-09T20:51:55;102.53;;;95.25;;
47239;SDS011;32978;53.586;10.052;2022-09-09T20:56:52;98.50;;;91.80;;
47239;SDS011;32978;53.586;10.052;2022-09-09T21:01:48;96.55;;;89.88;;
47239;SDS011;32978;53.586;10.052;2022-09-09T21:06:46;94.93;;;88.45;;
47239;SDS011;32978;53.586;10.052;2022-09-09T21:11:42;94.88;;;87.95;;
47239;SDS011;32978;53.586;10.052;2022-09-09T21:16:38;93.10;;;86.35;;
47239;SDS011;32978;53.586;10.052;2022-09-09T21:21:34;92.38;;;86.07;;
47239;SDS011;32978;53.586;10.052;2022-09-09T21:26:31;93.20;;;86.95;;
47239;SDS011;32978;53.586;10.052;2022-09-09T21:31:27;92.72;;;86.22;;
47239;SDS011;32978;53.586;10.052;2022-09-09T21:36:24;95.10;;;88.30;;
47239;SDS011;32978;53.586;10.052;2022-09-09T21:41:23;95.70;;;89.10;;
47239;SDS011;32978;53.586;10.052;2022-09-09T21:46:19;94.45;;;87.75;;
47239;SDS011;32978;53.586;10.052;2022-09-09T21:51:16;97.82;;;91.13;;
47239;SDS011;32978;53.586;10.052;2022-09-09T21:56:14;98.10;;;91.30;;
47239;SDS011;32978;53.586;10.052;2022-09-09T22:01:11;92.88;;;86.43;;
47239;SDS011;32978;53.586;10.052;2022-09-09T22:06:09;87.63;;;80.95;;
47239;SDS011;32978;53.586;10.052;2022-09-09T22:11:14;84.88;;;78.88;;
47239;SDS011;32978;53.586;10.052;2022-09-09T22:16:12;88.22;;;82.13;;
47239;SDS011;32978;53.586;10.052;2022-09-09T22:21:13;88.07;;;81.65;;
47239;SDS011;32978;53.586;10.052;2022-09-09T22:26:09;92.85;;;86.25;;
47239;SDS011;32978;53.586;10.052;2022-09-09T22:31:06;90.20;;;83.55;;
47239;SDS011;32978;53.586;10.052;2022-09-09T22:36:02;89.50;;;83.32;;
47239;SDS011;32978;53.586;10.052;2022-09-09T22:40:59;89.90;;;83.40;;
47239;SDS011;32978;53.586;10.052;2022-09-09T22:45:58;88.43;;;82.05;;
47239;SDS011;32978;53.586;10.052;2022-09-09T22:50:59;94.88;;;88.03;;
47239;SDS011;32978;53.586;10.052;2022-09-09T22:55:56;97.43;;;90.57;;
47239;SDS011;32978;53.586;10.052;2022-09-09T23:00:54;92.88;;;86.32;;
47239;SDS011;32978;53.586;10.052;2022-09-09T23:05:58;95.90;;;89.22;;
47239;SDS011;32978;53.586;10.052;2022-09-09T23:10:54;93.13;;;86.47;;
47239;SDS011;32978;53.586;10.052;2022-09-09T23:15:50;97.38;;;90.57;;
47239;SDS011;32978;53.586;10.052;2022-09-09T23:20:54;97.45;;;90.72;;
47239;SDS011;32978;53.586;10.052;2022-09-09T23:25:52;96.95;;;89.85;;
47239;SDS011;32978;53.586;10.052;2022-09-09T23:30:48;91.25;;;85.00;;
47239;SDS011;32978;53.586;10.052;2022-09-09T23:35:45;90.40;;;83.80;;
47239;SDS011;32978;53.586;10.052;2022-09-09T23:40:42;87.85;;;81.60;;
47239;SDS011;32978;53.586;10.052;2022-09-09T23:45:40;92.28;;;86.07;;
47239;SDS011;32978;53.586;10.052;2022-09-09T23:50:37;95.65;;;89.10;;
47239;SDS011;32978;53.586;10.052;2022-09-09T23:55:33;94.78;;;88.05;;
